Terminal Aerodrome Forecast
Issued by NWS

Home | Current Version | Previous Version | Text Only | Print | Product List | Glossary On
Versions: 1 2 3 4 5 6 7 8 9 10 11 12
855
FTUS44 KLIX 220522
TAFMSY
TAF
KMSY 220522Z 2206/2312 VRB03KT P6SM FEW030 BKN250 PROB30 2215/2221
      4SM TSRA BKN025CB
     FM222100 13005KT P6SM SCT040 BKN100 PROB30 2221/2224 4SM TSRA
      BKN040CB
     FM230000 15005KT P6SM FEW035 SCT250=

USA.gov is the U.S. government's official web portal to all federal, state and local government web resources and services.